sensor_id;sensor_type;location;lat;lon;timestamp;P1;durP1;ratioP1;P2;durP2;ratioP2
10335;SDS011;5213;53.548;9.930;2022-12-05T00:00:46;27.33;;;16.65;;
10335;SDS011;5213;53.548;9.930;2022-12-05T00:03:12;26.15;;;16.27;;
10335;SDS011;5213;53.548;9.930;2022-12-05T00:05:38;26.92;;;17.33;;
10335;SDS011;5213;53.548;9.930;2022-12-05T00:08:05;30.05;;;17.85;;
10335;SDS011;5213;53.548;9.930;2022-12-05T00:10:31;26.67;;;15.68;;
10335;SDS011;5213;53.548;9.930;2022-12-05T00:12:57;25.50;;;15.48;;
10335;SDS011;5213;53.548;9.930;2022-12-05T00:15:22;26.10;;;16.48;;
10335;SDS011;5213;53.548;9.930;2022-12-05T00:17:48;25.25;;;15.95;;
10335;SDS011;5213;53.548;9.930;2022-12-05T00:20:15;24.42;;;16.63;;
10335;SDS011;5213;53.548;9.930;2022-12-05T00:22:41;24.67;;;15.02;;
10335;SDS011;5213;53.548;9.930;2022-12-05T00:25:07;24.15;;;16.25;;
10335;SDS011;5213;53.548;9.930;2022-12-05T00:27:33;27.75;;;16.15;;
10335;SDS011;5213;53.548;9.930;2022-12-05T00:29:59;22.45;;;14.82;;
10335;SDS011;5213;53.548;9.930;2022-12-05T00:32:27;23.38;;;15.52;;
10335;SDS011;5213;53.548;9.930;2022-12-05T00:34:53;24.25;;;15.60;;
10335;SDS011;5213;53.548;9.930;2022-12-05T00:37:19;24.75;;;15.73;;
10335;SDS011;5213;53.548;9.930;2022-12-05T00:39:45;23.30;;;15.80;;
10335;SDS011;5213;53.548;9.930;2022-12-05T00:42:11;22.42;;;15.38;;
10335;SDS011;5213;53.548;9.930;2022-12-05T00:44:37;22.65;;;14.65;;
10335;SDS011;5213;53.548;9.930;2022-12-05T00:47:03;21.85;;;14.77;;
10335;SDS011;5213;53.548;9.930;2022-12-05T00:49:29;24.20;;;15.55;;
10335;SDS011;5213;53.548;9.930;2022-12-05T00:51:55;22.08;;;14.57;;
10335;SDS011;5213;53.548;9.930;2022-12-05T00:54:21;20.60;;;14.15;;
10335;SDS011;5213;53.548;9.930;2022-12-05T00:56:48;21.45;;;14.10;;
10335;SDS011;5213;53.548;9.930;2022-12-05T00:59:17;21.30;;;14.30;;
10335;SDS011;5213;53.548;9.930;2022-12-05T01:01:43;19.98;;;13.93;;
10335;SDS011;5213;53.548;9.930;2022-12-05T01:04:11;21.48;;;14.02;;
10335;SDS011;5213;53.548;9.930;2022-12-05T01:06:38;22.10;;;14.48;;
10335;SDS011;5213;53.548;9.930;2022-12-05T01:09:04;22.02;;;14.13;;
10335;SDS011;5213;53.548;9.930;2022-12-05T01:11:31;19.80;;;14.18;;
10335;SDS011;5213;53.548;9.930;2022-12-05T01:13:57;19.88;;;14.02;;
10335;SDS011;5213;53.548;9.930;2022-12-05T01:16:30;17.95;;;13.68;;
10335;SDS011;5213;53.548;9.930;2022-12-05T01:18:57;21.73;;;14.57;;
10335;SDS011;5213;53.548;9.930;2022-12-05T01:21:23;21.63;;;14.70;;
10335;SDS011;5213;53.548;9.930;2022-12-05T01:23:50;21.55;;;14.20;;
10335;SDS011;5213;53.548;9.930;2022-12-05T01:26:17;22.50;;;15.05;;
10335;SDS011;5213;53.548;9.930;2022-12-05T01:28:43;20.45;;;15.05;;
10335;SDS011;5213;53.548;9.930;2022-12-05T01:31:32;20.83;;;13.38;;
10335;SDS011;5213;53.548;9.930;2022-12-05T01:33:57;21.08;;;14.40;;
10335;SDS011;5213;53.548;9.930;2022-12-05T01:36:24;21.20;;;14.40;;
10335;SDS011;5213;53.548;9.930;2022-12-05T01:38:50;20.88;;;13.77;;
10335;SDS011;5213;53.548;9.930;2022-12-05T01:41:17;20.58;;;14.15;;
10335;SDS011;5213;53.548;9.930;2022-12-05T01:43:58;21.05;;;14.50;;
10335;SDS011;5213;53.548;9.930;2022-12-05T01:46:24;21.13;;;13.95;;
10335;SDS011;5213;53.548;9.930;2022-12-05T01:48:52;18.27;;;11.85;;
10335;SDS011;5213;53.548;9.930;2022-12-05T01:51:20;18.40;;;12.93;;
10335;SDS011;5213;53.548;9.930;2022-12-05T01:53:47;21.25;;;14.07;;
10335;SDS011;5213;53.548;9.930;2022-12-05T01:56:13;18.92;;;13.40;;
10335;SDS011;5213;53.548;9.930;2022-12-05T01:58:39;19.27;;;14.05;;
10335;SDS011;5213;53.548;9.930;2022-12-05T02:01:06;17.42;;;13.13;;
10335;SDS011;5213;53.548;9.930;2022-12-05T02:03:32;19.67;;;13.93;;
10335;SDS011;5213;53.548;9.930;2022-12-05T02:06:00;19.20;;;13.60;;
10335;SDS011;5213;53.548;9.930;2022-12-05T02:08:27;18.92;;;13.45;;
10335;SDS011;5213;53.548;9.930;2022-12-05T02:10:54;16.98;;;13.10;;
10335;SDS011;5213;53.548;9.930;2022-12-05T02:16:33;18.80;;;13.63;;
10335;SDS011;5213;53.548;9.930;2022-12-05T02:18:50;18.77;;;13.25;;
10335;SDS011;5213;53.548;9.930;2022-12-05T02:21:27;18.17;;;13.25;;
10335;SDS011;5213;53.548;9.930;2022-12-05T02:31:31;20.38;;;14.02;;
10335;SDS011;5213;53.548;9.930;2022-12-05T02:36:32;20.33;;;13.60;;
10335;SDS011;5213;53.548;9.930;2022-12-05T02:46:24;20.08;;;14.65;;
10335;SDS011;5213;53.548;9.930;2022-12-05T02:48:52;20.60;;;14.50;;
10335;SDS011;5213;53.548;9.930;2022-12-05T02:51:21;21.02;;;14.90;;
10335;SDS011;5213;53.548;9.930;2022-12-05T02:53:49;21.27;;;14.30;;
10335;SDS011;5213;53.548;9.930;2022-12-05T02:56:16;19.17;;;13.32;;
10335;SDS011;5213;53.548;9.930;2022-12-05T02:58:52;23.27;;;16.13;;
10335;SDS011;5213;53.548;9.930;2022-12-05T03:01:19;22.50;;;15.60;;
10335;SDS011;5213;53.548;9.930;2022-12-05T03:03:46;23.20;;;15.73;;
10335;SDS011;5213;53.548;9.930;2022-12-05T03:06:14;24.75;;;15.43;;
10335;SDS011;5213;53.548;9.930;2022-12-05T03:08:42;22.33;;;15.70;;
10335;SDS011;5213;53.548;9.930;2022-12-05T03:11:09;27.02;;;16.33;;
10335;SDS011;5213;53.548;9.930;2022-12-05T03:13:54;23.02;;;15.93;;
10335;SDS011;5213;53.548;9.930;2022-12-05T03:16:22;21.73;;;15.48;;
10335;SDS011;5213;53.548;9.930;2022-12-05T03:18:53;26.02;;;15.88;;
10335;SDS011;5213;53.548;9.930;2022-12-05T03:21:29;24.85;;;15.77;;
10335;SDS011;5213;53.548;9.930;2022-12-05T03:23:57;24.33;;;16.00;;
10335;SDS011;5213;53.548;9.930;2022-12-05T03:26:29;22.52;;;15.60;;
10335;SDS011;5213;53.548;9.930;2022-12-05T03:31:32;24.50;;;16.52;;
10335;SDS011;5213;53.548;9.930;2022-12-05T03:34:02;25.70;;;16.60;;
10335;SDS011;5213;53.548;9.930;2022-12-05T03:36:33;27.30;;;16.85;;
10335;SDS011;5213;53.548;9.930;2022-12-05T03:39:10;26.30;;;17.38;;
10335;SDS011;5213;53.548;9.930;2022-12-05T03:41:42;24.73;;;16.33;;
10335;SDS011;5213;53.548;9.930;2022-12-05T03:44:17;26.55;;;16.30;;
10335;SDS011;5213;53.548;9.930;2022-12-05T03:46:50;24.00;;;15.57;;
10335;SDS011;5213;53.548;9.930;2022-12-05T03:49:23;24.67;;;16.88;;
10335;SDS011;5213;53.548;9.930;2022-12-05T03:51:53;25.55;;;17.02;;
10335;SDS011;5213;53.548;9.930;2022-12-05T03:54:24;26.35;;;16.52;;
10335;SDS011;5213;53.548;9.930;2022-12-05T03:56:54;25.33;;;17.52;;
10335;SDS011;5213;53.548;9.930;2022-12-05T03:59:29;28.67;;;17.67;;
10335;SDS011;5213;53.548;9.930;2022-12-05T04:01:57;27.77;;;16.23;;
10335;SDS011;5213;53.548;9.930;2022-12-05T04:04:26;27.27;;;17.55;;
10335;SDS011;5213;53.548;9.930;2022-12-05T04:06:55;29.52;;;18.33;;
10335;SDS011;5213;53.548;9.930;2022-12-05T04:09:25;28.90;;;18.00;;
10335;SDS011;5213;53.548;9.930;2022-12-05T04:11:53;28.80;;;17.95;;
10335;SDS011;5213;53.548;9.930;2022-12-05T04:14:23;28.80;;;18.45;;
10335;SDS011;5213;53.548;9.930;2022-12-05T04:17:10;28.38;;;18.45;;
10335;SDS011;5213;53.548;9.930;2022-12-05T04:19:41;24.65;;;16.13;;
10335;SDS011;5213;53.548;9.930;2022-12-05T04:22:27;26.50;;;17.58;;
10335;SDS011;5213;53.548;9.930;2022-12-05T04:24:54;28.23;;;17.80;;
10335;SDS011;5213;53.548;9.930;2022-12-05T04:30:25;30.58;;;18.30;;
10335;SDS011;5213;53.548;9.930;2022-12-05T04:33:00;28.08;;;17.65;;
10335;SDS011;5213;53.548;9.930;2022-12-05T04:35:38;30.15;;;18.85;;
10335;SDS011;5213;53.548;9.930;2022-12-05T04:38:07;31.17;;;18.50;;
10335;SDS011;5213;53.548;9.930;2022-12-05T04:40:36;29.63;;;18.38;;
10335;SDS011;5213;53.548;9.930;2022-12-05T04:43:03;29.88;;;18.88;;
10335;SDS011;5213;53.548;9.930;2022-12-05T04:45:30;33.55;;;19.13;;
10335;SDS011;5213;53.548;9.930;2022-12-05T04:47:59;28.25;;;17.75;;
10335;SDS011;5213;53.548;9.930;2022-12-05T04:50:26;30.48;;;18.42;;
10335;SDS011;5213;53.548;9.930;2022-12-05T04:52:53;28.77;;;18.52;;
10335;SDS011;5213;53.548;9.930;2022-12-05T04:55:23;29.33;;;17.70;;
10335;SDS011;5213;53.548;9.930;2022-12-05T05:00:31;30.70;;;18.38;;
10335;SDS011;5213;53.548;9.930;2022-12-05T05:03:02;33.20;;;18.52;;
10335;SDS011;5213;53.548;9.930;2022-12-05T05:05:29;29.27;;;17.83;;
10335;SDS011;5213;53.548;9.930;2022-12-05T05:07:57;32.67;;;18.10;;
10335;SDS011;5213;53.548;9.930;2022-12-05T05:10:40;32.30;;;18.02;;
10335;SDS011;5213;53.548;9.930;2022-12-05T05:13:09;28.38;;;16.98;;
10335;SDS011;5213;53.548;9.930;2022-12-05T05:15:35;29.52;;;17.75;;
10335;SDS011;5213;53.548;9.930;2022-12-05T05:18:01;27.80;;;16.95;;
10335;SDS011;5213;53.548;9.930;2022-12-05T05:20:27;28.05;;;17.55;;
10335;SDS011;5213;53.548;9.930;2022-12-05T05:22:54;28.40;;;17.23;;
10335;SDS011;5213;53.548;9.930;2022-12-05T05:25:21;28.02;;;16.63;;
10335;SDS011;5213;53.548;9.930;2022-12-05T05:27:51;28.88;;;16.85;;
10335;SDS011;5213;53.548;9.930;2022-12-05T05:30:18;29.73;;;18.23;;
10335;SDS011;5213;53.548;9.930;2022-12-05T05:32:44;32.65;;;17.30;;
10335;SDS011;5213;53.548;9.930;2022-12-05T05:35:10;30.73;;;17.75;;
10335;SDS011;5213;53.548;9.930;2022-12-05T05:37:37;33.63;;;18.75;;
10335;SDS011;5213;53.548;9.930;2022-12-05T05:40:05;31.50;;;18.27;;
10335;SDS011;5213;53.548;9.930;2022-12-05T05:42:31;31.75;;;18.10;;
10335;SDS011;5213;53.548;9.930;2022-12-05T05:44:57;31.20;;;17.98;;
10335;SDS011;5213;53.548;9.930;2022-12-05T05:47:23;30.63;;;17.80;;
10335;SDS011;5213;53.548;9.930;2022-12-05T05:49:49;36.30;;;18.90;;
10335;SDS011;5213;53.548;9.930;2022-12-05T05:52:15;36.00;;;18.65;;
10335;SDS011;5213;53.548;9.930;2022-12-05T05:54:41;36.10;;;18.42;;
10335;SDS011;5213;53.548;9.930;2022-12-05T05:57:07;36.88;;;18.92;;
10335;SDS011;5213;53.548;9.930;2022-12-05T05:59:33;37.35;;;19.70;;
10335;SDS011;5213;53.548;9.930;2022-12-05T06:01:59;38.45;;;18.42;;
10335;SDS011;5213;53.548;9.930;2022-12-05T06:04:25;38.28;;;19.40;;
10335;SDS011;5213;53.548;9.930;2022-12-05T06:06:51;41.05;;;19.42;;
10335;SDS011;5213;53.548;9.930;2022-12-05T06:09:17;37.17;;;20.13;;
10335;SDS011;5213;53.548;9.930;2022-12-05T06:11:44;35.30;;;19.52;;
10335;SDS011;5213;53.548;9.930;2022-12-05T06:14:10;35.85;;;18.83;;
10335;SDS011;5213;53.548;9.930;2022-12-05T06:16:36;35.83;;;19.05;;
10335;SDS011;5213;53.548;9.930;2022-12-05T06:19:02;39.22;;;18.83;;
10335;SDS011;5213;53.548;9.930;2022-12-05T06:21:28;36.63;;;19.13;;
10335;SDS011;5213;53.548;9.930;2022-12-05T06:23:54;38.45;;;19.38;;
10335;SDS011;5213;53.548;9.930;2022-12-05T06:26:21;45.47;;;19.60;;
10335;SDS011;5213;53.548;9.930;2022-12-05T06:28:47;35.55;;;18.25;;
10335;SDS011;5213;53.548;9.930;2022-12-05T06:31:17;44.17;;;20.13;;
10335;SDS011;5213;53.548;9.930;2022-12-05T06:33:44;37.83;;;18.55;;
10335;SDS011;5213;53.548;9.930;2022-12-05T06:36:11;45.60;;;20.30;;
10335;SDS011;5213;53.548;9.930;2022-12-05T06:38:38;37.40;;;19.50;;
10335;SDS011;5213;53.548;9.930;2022-12-05T06:41:04;40.92;;;21.17;;
10335;SDS011;5213;53.548;9.930;2022-12-05T06:43:31;43.17;;;20.20;;
10335;SDS011;5213;53.548;9.930;2022-12-05T06:45:57;40.40;;;18.02;;
10335;SDS011;5213;53.548;9.930;2022-12-05T06:48:23;36.92;;;18.67;;
10335;SDS011;5213;53.548;9.930;2022-12-05T06:50:50;46.70;;;20.90;;
10335;SDS011;5213;53.548;9.930;2022-12-05T06:53:16;43.13;;;19.23;;
10335;SDS011;5213;53.548;9.930;2022-12-05T06:55:43;41.90;;;20.17;;
10335;SDS011;5213;53.548;9.930;2022-12-05T06:58:09;41.17;;;19.15;;
10335;SDS011;5213;53.548;9.930;2022-12-05T07:00:35;36.58;;;18.13;;
10335;SDS011;5213;53.548;9.930;2022-12-05T07:03:20;40.55;;;20.27;;
10335;SDS011;5213;53.548;9.930;2022-12-05T07:05:46;40.50;;;19.30;;
10335;SDS011;5213;53.548;9.930;2022-12-05T07:08:12;41.35;;;19.30;;
10335;SDS011;5213;53.548;9.930;2022-12-05T07:10:38;46.25;;;19.48;;
10335;SDS011;5213;53.548;9.930;2022-12-05T07:13:04;44.28;;;20.17;;
10335;SDS011;5213;53.548;9.930;2022-12-05T07:15:30;41.50;;;20.65;;
10335;SDS011;5213;53.548;9.930;2022-12-05T07:17:56;47.55;;;21.85;;
10335;SDS011;5213;53.548;9.930;2022-12-05T07:20:22;48.13;;;21.23;;
10335;SDS011;5213;53.548;9.930;2022-12-05T07:22:48;53.75;;;21.83;;
10335;SDS011;5213;53.548;9.930;2022-12-05T07:25:14;51.88;;;22.33;;
10335;SDS011;5213;53.548;9.930;2022-12-05T07:27:40;54.20;;;21.90;;
10335;SDS011;5213;53.548;9.930;2022-12-05T07:30:07;51.00;;;22.00;;
10335;SDS011;5213;53.548;9.930;2022-12-05T07:32:33;54.50;;;22.40;;
10335;SDS011;5213;53.548;9.930;2022-12-05T07:34:59;57.45;;;23.23;;
10335;SDS011;5213;53.548;9.930;2022-12-05T07:37:25;59.15;;;24.15;;
10335;SDS011;5213;53.548;9.930;2022-12-05T07:39:51;54.38;;;24.55;;
10335;SDS011;5213;53.548;9.930;2022-12-05T07:42:17;55.78;;;21.88;;
10335;SDS011;5213;53.548;9.930;2022-12-05T07:44:43;52.25;;;21.98;;
10335;SDS011;5213;53.548;9.930;2022-12-05T07:47:09;49.88;;;20.23;;
10335;SDS011;5213;53.548;9.930;2022-12-05T07:49:35;46.03;;;19.77;;
10335;SDS011;5213;53.548;9.930;2022-12-05T07:52:02;41.92;;;18.52;;
10335;SDS011;5213;53.548;9.930;2022-12-05T07:54:28;40.05;;;17.52;;
10335;SDS011;5213;53.548;9.930;2022-12-05T07:56:54;39.35;;;18.83;;
10335;SDS011;5213;53.548;9.930;2022-12-05T07:59:20;37.10;;;18.15;;
10335;SDS011;5213;53.548;9.930;2022-12-05T08:01:46;41.30;;;17.88;;
10335;SDS011;5213;53.548;9.930;2022-12-05T08:04:12;37.35;;;18.55;;
10335;SDS011;5213;53.548;9.930;2022-12-05T08:06:38;34.05;;;17.52;;
10335;SDS011;5213;53.548;9.930;2022-12-05T08:09:04;35.78;;;18.48;;
10335;SDS011;5213;53.548;9.930;2022-12-05T08:11:31;34.42;;;17.08;;
10335;SDS011;5213;53.548;9.930;2022-12-05T08:14:01;36.65;;;17.42;;
10335;SDS011;5213;53.548;9.930;2022-12-05T08:16:27;37.30;;;17.40;;
10335;SDS011;5213;53.548;9.930;2022-12-05T08:18:54;36.88;;;17.50;;
10335;SDS011;5213;53.548;9.930;2022-12-05T08:21:20;27.17;;;15.57;;
10335;SDS011;5213;53.548;9.930;2022-12-05T08:23:47;28.70;;;16.73;;
10335;SDS011;5213;53.548;9.930;2022-12-05T08:28:39;29.35;;;15.32;;
10335;SDS011;5213;53.548;9.930;2022-12-05T08:33:31;35.47;;;15.93;;
10335;SDS011;5213;53.548;9.930;2022-12-05T08:36:01;32.75;;;16.13;;
10335;SDS011;5213;53.548;9.930;2022-12-05T08:38:28;33.42;;;16.52;;
10335;SDS011;5213;53.548;9.930;2022-12-05T08:40:54;34.38;;;17.02;;
10335;SDS011;5213;53.548;9.930;2022-12-05T08:43:20;31.17;;;15.63;;
10335;SDS011;5213;53.548;9.930;2022-12-05T08:45:50;33.60;;;16.58;;
10335;SDS011;5213;53.548;9.930;2022-12-05T08:48:16;32.90;;;17.05;;
10335;SDS011;5213;53.548;9.930;2022-12-05T08:50:42;31.13;;;15.00;;
10335;SDS011;5213;53.548;9.930;2022-12-05T08:53:08;28.90;;;14.60;;
10335;SDS011;5213;53.548;9.930;2022-12-05T08:55:34;31.90;;;17.55;;
10335;SDS011;5213;53.548;9.930;2022-12-05T08:58:00;34.83;;;16.75;;
10335;SDS011;5213;53.548;9.930;2022-12-05T09:00:26;34.38;;;16.33;;
10335;SDS011;5213;53.548;9.930;2022-12-05T09:02:52;34.88;;;17.08;;
10335;SDS011;5213;53.548;9.930;2022-12-05T09:05:19;32.65;;;16.33;;
10335;SDS011;5213;53.548;9.930;2022-12-05T09:07:45;36.20;;;17.40;;
10335;SDS011;5213;53.548;9.930;2022-12-05T09:10:11;41.00;;;18.75;;
10335;SDS011;5213;53.548;9.930;2022-12-05T09:12:37;39.05;;;18.50;;
10335;SDS011;5213;53.548;9.930;2022-12-05T09:15:04;41.25;;;18.73;;
10335;SDS011;5213;53.548;9.930;2022-12-05T09:17:30;38.88;;;18.48;;
10335;SDS011;5213;53.548;9.930;2022-12-05T09:19:56;37.05;;;17.88;;
10335;SDS011;5213;53.548;9.930;2022-12-05T09:22:23;36.92;;;16.40;;
10335;SDS011;5213;53.548;9.930;2022-12-05T09:24:49;34.83;;;17.13;;
10335;SDS011;5213;53.548;9.930;2022-12-05T09:27:15;39.15;;;16.90;;
10335;SDS011;5213;53.548;9.930;2022-12-05T09:29:41;34.58;;;16.98;;
10335;SDS011;5213;53.548;9.930;2022-12-05T09:32:07;33.95;;;17.10;;
10335;SDS011;5213;53.548;9.930;2022-12-05T09:34:33;34.15;;;16.55;;
10335;SDS011;5213;53.548;9.930;2022-12-05T09:37:00;35.90;;;17.20;;
10335;SDS011;5213;53.548;9.930;2022-12-05T09:39:27;30.70;;;15.27;;
10335;SDS011;5213;53.548;9.930;2022-12-05T09:49:46;29.40;;;14.95;;
10335;SDS011;5213;53.548;9.930;2022-12-05T09:52:21;32.45;;;14.40;;
10335;SDS011;5213;53.548;9.930;2022-12-05T09:54:48;31.83;;;14.55;;
10335;SDS011;5213;53.548;9.930;2022-12-05T09:57:16;29.80;;;14.57;;
10335;SDS011;5213;53.548;9.930;2022-12-05T09:59:42;24.92;;;13.15;;
10335;SDS011;5213;53.548;9.930;2022-12-05T10:02:26;27.42;;;14.02;;
10335;SDS011;5213;53.548;9.930;2022-12-05T10:04:54;25.02;;;13.55;;
10335;SDS011;5213;53.548;9.930;2022-12-05T10:14:50;27.67;;;14.05;;
10335;SDS011;5213;53.548;9.930;2022-12-05T10:17:23;24.45;;;13.02;;
10335;SDS011;5213;53.548;9.930;2022-12-05T10:19:51;24.13;;;12.45;;
10335;SDS011;5213;53.548;9.930;2022-12-05T10:22:19;23.45;;;12.93;;
10335;SDS011;5213;53.548;9.930;2022-12-05T10:24:51;23.45;;;12.63;;
10335;SDS011;5213;53.548;9.930;2022-12-05T10:27:20;24.00;;;12.80;;
10335;SDS011;5213;53.548;9.930;2022-12-05T10:29:49;23.27;;;13.32;;
10335;SDS011;5213;53.548;9.930;2022-12-05T10:32:19;24.35;;;13.55;;
10335;SDS011;5213;53.548;9.930;2022-12-05T10:34:46;24.83;;;13.32;;
10335;SDS011;5213;53.548;9.930;2022-12-05T10:37:15;24.05;;;12.20;;
10335;SDS011;5213;53.548;9.930;2022-12-05T10:39:42;24.15;;;12.95;;
10335;SDS011;5213;53.548;9.930;2022-12-05T10:42:16;23.90;;;12.18;;
10335;SDS011;5213;53.548;9.930;2022-12-05T10:44:42;23.27;;;12.43;;
10335;SDS011;5213;53.548;9.930;2022-12-05T10:47:09;21.30;;;12.10;;
10335;SDS011;5213;53.548;9.930;2022-12-05T10:49:36;20.60;;;11.75;;
10335;SDS011;5213;53.548;9.930;2022-12-05T10:52:03;22.90;;;12.82;;
10335;SDS011;5213;53.548;9.930;2022-12-05T10:54:29;21.13;;;12.40;;
10335;SDS011;5213;53.548;9.930;2022-12-05T10:56:58;23.40;;;12.88;;
10335;SDS011;5213;53.548;9.930;2022-12-05T10:59:25;23.52;;;13.27;;
10335;SDS011;5213;53.548;9.930;2022-12-05T11:01:55;23.33;;;12.93;;
10335;SDS011;5213;53.548;9.930;2022-12-05T11:04:23;25.30;;;13.45;;
10335;SDS011;5213;53.548;9.930;2022-12-05T11:06:50;24.02;;;13.77;;
10335;SDS011;5213;53.548;9.930;2022-12-05T11:09:18;23.45;;;12.68;;
10335;SDS011;5213;53.548;9.930;2022-12-05T11:11:56;25.83;;;14.00;;
10335;SDS011;5213;53.548;9.930;2022-12-05T11:14:23;23.23;;;13.20;;
10335;SDS011;5213;53.548;9.930;2022-12-05T11:16:54;24.85;;;13.38;;
10335;SDS011;5213;53.548;9.930;2022-12-05T11:21:47;26.30;;;13.10;;
10335;SDS011;5213;53.548;9.930;2022-12-05T11:24:20;21.98;;;13.15;;
10335;SDS011;5213;53.548;9.930;2022-12-05T11:26:47;24.70;;;12.75;;
10335;SDS011;5213;53.548;9.930;2022-12-05T11:31:57;22.00;;;12.80;;
10335;SDS011;5213;53.548;9.930;2022-12-05T11:34:46;23.05;;;12.82;;
10335;SDS011;5213;53.548;9.930;2022-12-05T11:37:20;20.40;;;12.57;;
10335;SDS011;5213;53.548;9.930;2022-12-05T11:39:47;18.98;;;11.98;;
10335;SDS011;5213;53.548;9.930;2022-12-05T11:45:08;18.42;;;12.63;;
10335;SDS011;5213;53.548;9.930;2022-12-05T11:47:55;20.98;;;12.25;;
10335;SDS011;5213;53.548;9.930;2022-12-05T11:50:49;20.92;;;12.75;;
10335;SDS011;5213;53.548;9.930;2022-12-05T11:55:48;21.00;;;11.95;;
10335;SDS011;5213;53.548;9.930;2022-12-05T12:01:14;18.60;;;11.52;;
10335;SDS011;5213;53.548;9.930;2022-12-05T12:14:01;20.23;;;10.90;;
10335;SDS011;5213;53.548;9.930;2022-12-05T12:19:01;17.58;;;11.15;;
10335;SDS011;5213;53.548;9.930;2022-12-05T12:24:05;18.35;;;11.60;;
10335;SDS011;5213;53.548;9.930;2022-12-05T12:36:50;19.17;;;12.70;;
10335;SDS011;5213;53.548;9.930;2022-12-05T12:39:29;17.70;;;10.98;;
10335;SDS011;5213;53.548;9.930;2022-12-05T12:47:35;18.92;;;11.88;;
10335;SDS011;5213;53.548;9.930;2022-12-05T12:50:03;14.70;;;10.52;;
10335;SDS011;5213;53.548;9.930;2022-12-05T12:52:52;15.63;;;10.27;;
10335;SDS011;5213;53.548;9.930;2022-12-05T12:57:55;14.52;;;9.60;;
10335;SDS011;5213;53.548;9.930;2022-12-05T13:02:53;15.05;;;10.05;;
10335;SDS011;5213;53.548;9.930;2022-12-05T13:07:58;13.38;;;9.23;;
10335;SDS011;5213;53.548;9.930;2022-12-05T13:12:52;12.73;;;9.13;;
10335;SDS011;5213;53.548;9.930;2022-12-05T13:15:26;13.63;;;9.15;;
10335;SDS011;5213;53.548;9.930;2022-12-05T13:17:52;14.55;;;8.95;;
10335;SDS011;5213;53.548;9.930;2022-12-05T13:20:22;14.75;;;9.93;;
10335;SDS011;5213;53.548;9.930;2022-12-05T13:22:50;13.15;;;9.90;;
10335;SDS011;5213;53.548;9.930;2022-12-05T13:25:17;14.10;;;9.65;;
10335;SDS011;5213;53.548;9.930;2022-12-05T13:28:22;13.45;;;9.13;;
10335;SDS011;5213;53.548;9.930;2022-12-05T13:30:37;13.27;;;9.43;;
10335;SDS011;5213;53.548;9.930;2022-12-05T13:33:23;13.60;;;9.13;;
10335;SDS011;5213;53.548;9.930;2022-12-05T13:36:02;12.57;;;9.50;;
10335;SDS011;5213;53.548;9.930;2022-12-05T13:38:48;14.07;;;10.25;;
10335;SDS011;5213;53.548;9.930;2022-12-05T13:42:12;13.98;;;9.38;;
10335;SDS011;5213;53.548;9.930;2022-12-05T13:44:44;13.93;;;10.15;;
10335;SDS011;5213;53.548;9.930;2022-12-05T13:47:28;13.70;;;9.93;;
10335;SDS011;5213;53.548;9.930;2022-12-05T13:49:58;15.68;;;10.32;;
10335;SDS011;5213;53.548;9.930;2022-12-05T13:52:28;12.60;;;9.82;;
10335;SDS011;5213;53.548;9.930;2022-12-05T13:55:02;14.80;;;9.57;;
10335;SDS011;5213;53.548;9.930;2022-12-05T14:10:15;15.68;;;9.80;;
10335;SDS011;5213;53.548;9.930;2022-12-05T14:18:14;11.88;;;9.15;;
10335;SDS011;5213;53.548;9.930;2022-12-05T14:23:16;10.88;;;8.93;;
10335;SDS011;5213;53.548;9.930;2022-12-05T14:34:12;13.25;;;8.80;;
10335;SDS011;5213;53.548;9.930;2022-12-05T14:36:46;12.15;;;9.02;;
10335;SDS011;5213;53.548;9.930;2022-12-05T14:42:00;12.20;;;9.00;;
10335;SDS011;5213;53.548;9.930;2022-12-05T14:44:27;12.82;;;8.38;;
10335;SDS011;5213;53.548;9.930;2022-12-05T14:46:56;11.00;;;8.55;;
10335;SDS011;5213;53.548;9.930;2022-12-05T14:52:17;12.40;;;9.05;;
10335;SDS011;5213;53.548;9.930;2022-12-05T14:54:44;11.43;;;8.70;;
10335;SDS011;5213;53.548;9.930;2022-12-05T14:57:11;10.82;;;8.63;;
10335;SDS011;5213;53.548;9.930;2022-12-05T15:00:00;10.10;;;8.27;;
10335;SDS011;5213;53.548;9.930;2022-12-05T15:02:28;11.20;;;7.85;;
10335;SDS011;5213;53.548;9.930;2022-12-05T15:04:58;11.93;;;8.02;;
10335;SDS011;5213;53.548;9.930;2022-12-05T15:07:29;11.32;;;8.27;;
10335;SDS011;5213;53.548;9.930;2022-12-05T15:10:00;10.52;;;7.70;;
10335;SDS011;5213;53.548;9.930;2022-12-05T15:17:51;10.88;;;8.30;;
10335;SDS011;5213;53.548;9.930;2022-12-05T15:20:22;9.95;;;7.82;;
10335;SDS011;5213;53.548;9.930;2022-12-05T15:22:52;11.00;;;8.07;;
10335;SDS011;5213;53.548;9.930;2022-12-05T15:25:28;11.38;;;7.90;;
10335;SDS011;5213;53.548;9.930;2022-12-05T15:28:05;11.15;;;7.60;;
10335;SDS011;5213;53.548;9.930;2022-12-05T15:30:41;10.20;;;7.05;;
10335;SDS011;5213;53.548;9.930;2022-12-05T15:33:11;9.27;;;7.93;;
10335;SDS011;5213;53.548;9.930;2022-12-05T15:35:37;8.25;;;6.68;;
10335;SDS011;5213;53.548;9.930;2022-12-05T15:38:05;8.48;;;6.45;;
10335;SDS011;5213;53.548;9.930;2022-12-05T15:40:34;9.32;;;6.65;;
10335;SDS011;5213;53.548;9.930;2022-12-05T15:43:24;8.38;;;7.05;;
10335;SDS011;5213;53.548;9.930;2022-12-05T15:46:05;9.88;;;7.35;;
10335;SDS011;5213;53.548;9.930;2022-12-05T15:48:31;9.93;;;7.50;;
10335;SDS011;5213;53.548;9.930;2022-12-05T15:50:57;9.55;;;7.57;;
10335;SDS011;5213;53.548;9.930;2022-12-05T15:53:30;9.02;;;7.15;;
10335;SDS011;5213;53.548;9.930;2022-12-05T15:55:59;9.98;;;7.47;;
10335;SDS011;5213;53.548;9.930;2022-12-05T15:58:30;10.38;;;7.28;;
10335;SDS011;5213;53.548;9.930;2022-12-05T16:03:42;10.80;;;7.30;;
10335;SDS011;5213;53.548;9.930;2022-12-05T16:06:13;8.73;;;7.28;;
10335;SDS011;5213;53.548;9.930;2022-12-05T16:08:42;8.60;;;6.93;;
10335;SDS011;5213;53.548;9.930;2022-12-05T16:11:09;9.73;;;7.00;;
10335;SDS011;5213;53.548;9.930;2022-12-05T16:13:35;9.20;;;7.55;;
10335;SDS011;5213;53.548;9.930;2022-12-05T16:16:03;10.82;;;7.63;;
10335;SDS011;5213;53.548;9.930;2022-12-05T16:18:30;8.63;;;6.75;;
10335;SDS011;5213;53.548;9.930;2022-12-05T16:20:56;9.10;;;6.97;;
10335;SDS011;5213;53.548;9.930;2022-12-05T16:23:29;9.20;;;7.30;;
10335;SDS011;5213;53.548;9.930;2022-12-05T16:28:56;8.18;;;7.10;;
10335;SDS011;5213;53.548;9.930;2022-12-05T16:31:22;9.98;;;7.13;;
10335;SDS011;5213;53.548;9.930;2022-12-05T16:33:57;8.95;;;7.07;;
10335;SDS011;5213;53.548;9.930;2022-12-05T16:36:24;8.60;;;7.43;;
10335;SDS011;5213;53.548;9.930;2022-12-05T16:38:50;9.38;;;7.32;;
10335;SDS011;5213;53.548;9.930;2022-12-05T16:41:30;10.07;;;7.88;;
10335;SDS011;5213;53.548;9.930;2022-12-05T16:43:57;10.10;;;7.70;;
10335;SDS011;5213;53.548;9.930;2022-12-05T16:49:14;14.18;;;9.70;;
10335;SDS011;5213;53.548;9.930;2022-12-05T16:51:42;9.80;;;8.57;;
10335;SDS011;5213;53.548;9.930;2022-12-05T16:54:09;11.95;;;9.10;;
10335;SDS011;5213;53.548;9.930;2022-12-05T16:56:35;12.00;;;8.52;;
10335;SDS011;5213;53.548;9.930;2022-12-05T16:59:05;9.90;;;8.30;;
10335;SDS011;5213;53.548;9.930;2022-12-05T17:01:34;10.40;;;8.07;;
10335;SDS011;5213;53.548;9.930;2022-12-05T17:04:00;12.45;;;8.52;;
10335;SDS011;5213;53.548;9.930;2022-12-05T17:06:26;11.93;;;8.95;;
10335;SDS011;5213;53.548;9.930;2022-12-05T17:08:52;11.43;;;8.32;;
10335;SDS011;5213;53.548;9.930;2022-12-05T17:11:20;11.55;;;9.00;;
10335;SDS011;5213;53.548;9.930;2022-12-05T17:13:46;12.45;;;8.75;;
10335;SDS011;5213;53.548;9.930;2022-12-05T17:16:13;9.55;;;8.27;;
10335;SDS011;5213;53.548;9.930;2022-12-05T17:18:40;11.40;;;8.75;;
10335;SDS011;5213;53.548;9.930;2022-12-05T17:21:09;12.40;;;9.18;;